Time;durP1;ratioP1;P1;durP2;ratioP2;P2;SDS_P1;SDS_P2;PMS_P1;PMS_P2;Temp;Humidity;BMP_temperature;BMP_pressure;BME280_temperature;BME280_humidity;BME280_pressure;Samples;Min_cycle;Max_cycle;Signal;HPM_P1;HPM_P2
2021/01/08 00:00:16;;;;;;;;;;;3.80;96.30;;;;;;4331312;33;19947;-23
2021/01/08 00:02:43;;;;;;;;;;;3.80;96.30;;;;;;4330805;33;20270;-23
2021/01/08 00:05:11;;;;;;;;;;;3.80;96.30;;;;;;4329829;33;19954;-23
2021/01/08 00:07:38;;;;;;;;;;;3.80;96.30;;;;;;4331045;33;19944;-23
2021/01/08 00:10:05;;;;;;;;;;;3.80;96.30;;;;;;4331070;33;19940;-23
2021/01/08 00:12:32;;;;;;;;;;;3.80;96.30;;;;;;4331349;33;19944;-23
2021/01/08 00:14:59;;;;;;;;;;;3.80;96.30;;;;;;4331145;33;20365;-23
2021/01/08 00:17:28;;;;;;;;;;;3.80;96.30;;;;;;4331171;33;19982;-23
2021/01/08 00:19:55;;;;;;;;;;;3.80;96.30;;;;;;4329676;33;20322;-23
2021/01/08 00:22:23;;;;;;;;;;;3.80;96.30;;;;;;4330870;33;19947;-23
2021/01/08 00:24:50;;;;;;;;;;;3.80;96.30;;;;;;4329845;33;19951;-23
2021/01/08 00:27:17;;;;;;;;;;;3.80;96.40;;;;;;4329899;33;19952;-23
2021/01/08 00:29:44;;;;;;;;;;;3.80;96.30;;;;;;4331109;33;19944;-24
2021/01/08 00:32:16;;;;;;;;;;;3.80;96.30;;;;;;4331285;33;19952;-23
2021/01/08 00:34:42;;;;;;;;;;;3.80;96.30;;;;;;4330998;33;19983;-23
2021/01/08 00:37:09;;;;;;;;;;;3.80;96.30;;;;;;4332685;33;19944;-23
2021/01/08 00:39:36;;;;;;;;;;;3.80;96.40;;;;;;4330108;33;19952;-23
2021/01/08 00:42:04;;;;;;;;;;;3.80;96.30;;;;;;4330909;33;20337;-23
2021/01/08 00:44:30;;;;;;;;;;;3.80;96.30;;;;;;4330862;33;19944;-23
2021/01/08 00:46:57;;;;;;;;;;;3.80;96.30;;;;;;4331080;33;19944;-23
2021/01/08 00:49:23;;;;;;;;;;;3.80;96.30;;;;;;4330607;33;20008;-23
2021/01/08 00:51:49;;;;;;;;;;;3.80;96.30;;;;;;4330606;33;20380;-23
2021/01/08 00:54:16;;;;;;;;;;;3.80;96.30;;;;;;4330865;33;20364;-23
2021/01/08 00:56:42;;;;;;;;;;;3.80;96.30;;;;;;4330828;33;19980;-23
2021/01/08 00:59:09;;;;;;;;;;;3.80;96.30;;;;;;4330640;33;19944;-23
2021/01/08 01:01:35;;;;;;;;;;;3.80;96.30;;;;;;4329690;33;19939;-23
2021/01/08 01:04:02;;;;;;;;;;;3.80;96.30;;;;;;4330952;33;19979;-23
2021/01/08 01:06:30;;;;;;;;;;;3.80;96.30;;;;;;4329304;33;19952;-23
2021/01/08 01:08:57;;;;;;;;;;;3.80;96.30;;;;;;4329458;33;20391;-23
2021/01/08 01:11:25;;;;;;;;;;;3.80;96.30;;;;;;4332336;33;19951;-23
2021/01/08 01:13:53;;;;;;;;;;;3.80;96.30;;;;;;4329605;33;19979;-23
2021/01/08 01:16:20;;;;;;;;;;;3.80;96.30;;;;;;4329431;33;19955;-23
2021/01/08 01:18:51;;;;;;;;;;;3.70;96.30;;;;;;4330734;33;19947;-23
2021/01/08 01:21:18;;;;;;;;;;;3.80;96.30;;;;;;4330421;33;19962;-23
2021/01/08 01:23:44;;;;;;;;;;;3.80;96.70;;;;;;4330438;33;20337;-23
2021/01/08 01:26:11;;;;;;;;;;;3.80;96.30;;;;;;4330495;33;19959;-23
2021/01/08 01:28:38;;;;;;;;;;;3.80;96.30;;;;;;4330122;33;19948;-23
2021/01/08 01:31:05;;;;;;;;;;;3.80;96.30;;;;;;4330010;33;19940;-23
2021/01/08 01:33:32;;;;;;;;;;;3.70;96.30;;;;;;4330205;33;20334;-23
2021/01/08 01:36:02;;;;;;;;;;;3.70;96.30;;;;;;4330335;33;19966;-23
2021/01/08 01:38:29;;;;;;;;;;;3.70;96.30;;;;;;4330504;33;19944;-23
2021/01/08 01:40:55;;;;;;;;;;;3.70;96.30;;;;;;4330435;33;19998;-24
2021/01/08 01:43:22;;;;;;;;;;;3.70;96.30;;;;;;4330374;33;19994;-24
2021/01/08 01:45:49;;;;;;;;;;;3.70;96.30;;;;;;4330107;33;19966;-23
2021/01/08 01:48:16;;;;;;;;;;;3.70;96.30;;;;;;4330477;33;19968;-23
2021/01/08 01:50:42;;;;;;;;;;;3.70;96.30;;;;;;4330455;33;19979;-23
2021/01/08 01:53:09;;;;;;;;;;;3.70;96.30;;;;;;4330336;33;20232;-23
2021/01/08 01:55:35;;;;;;;;;;;3.70;96.30;;;;;;4330374;33;19944;-24
2021/01/08 01:58:03;;;;;;;;;;;3.70;96.30;;;;;;4329915;33;20294;-23
2021/01/08 02:00:30;;;;;;;;;;;3.70;96.30;;;;;;4330146;33;19995;-24
2021/01/08 02:02:56;;;;;;;;;;;3.70;96.30;;;;;;4329973;33;19954;-23
2021/01/08 02:05:23;;;;;;;;;;;3.70;96.30;;;;;;4328877;33;20397;-24
2021/01/08 02:08:11;;;;;;;;;;;3.70;96.30;;;;;;4330361;33;20297;-23
2021/01/08 02:10:43;;;;;;;;;;;3.70;96.30;;;;;;4329250;33;19983;-23
2021/01/08 02:13:16;;;;;;;;;;;3.70;96.30;;;;;;4330054;33;19955;-23
2021/01/08 02:15:44;;;;;;;;;;;3.70;96.30;;;;;;4329354;33;19988;-23
2021/01/08 02:18:12;;;;;;;;;;;3.70;96.20;;;;;;4330234;33;19970;-23
2021/01/08 02:20:39;;;;;;;;;;;3.70;96.30;;;;;;4330486;33;19983;-23
2021/01/08 02:23:08;;;;;;;;;;;3.70;96.20;;;;;;4332295;33;20356;-23
2021/01/08 02:25:36;;;;;;;;;;;3.70;96.30;;;;;;4332624;33;19951;-23
2021/01/08 02:28:06;;;;;;;;;;;3.70;96.30;;;;;;4332790;33;19991;-23
2021/01/08 02:30:34;;;;;;;;;;;3.70;96.30;;;;;;4331740;33;19979;-23
2021/01/08 02:33:01;;;;;;;;;;;3.70;96.30;;;;;;4319531;33;19959;-23
2021/01/08 02:35:31;;;;;;;;;;;3.70;96.30;;;;;;4332675;33;19952;-23
2021/01/08 02:37:59;;;;;;;;;;;3.70;96.30;;;;;;4319721;33;19952;-23
2021/01/08 02:40:27;;;;;;;;;;;3.60;96.30;;;;;;4332569;33;19947;-23
2021/01/08 02:43:01;;;;;;;;;;;3.60;96.20;;;;;;4332378;33;19967;-23
2021/01/08 02:45:28;;;;;;;;;;;3.70;96.30;;;;;;4332609;33;19956;-23
2021/01/08 02:47:54;;;;;;;;;;;3.60;96.30;;;;;;4332462;33;20277;-23
2021/01/08 02:50:22;;;;;;;;;;;3.60;96.20;;;;;;4332007;33;19963;-23
2021/01/08 02:52:50;;;;;;;;;;;3.60;96.30;;;;;;4332593;33;19983;-23
2021/01/08 02:55:19;;;;;;;;;;;3.60;96.20;;;;;;4331132;33;20334;-23
2021/01/08 02:57:45;;;;;;;;;;;3.60;96.30;;;;;;4332376;33;20338;-23
2021/01/08 03:00:12;;;;;;;;;;;3.60;96.20;;;;;;4332235;33;20376;-23
2021/01/08 03:02:39;;;;;;;;;;;3.70;96.60;;;;;;4331950;33;19959;-23
2021/01/08 03:05:06;;;;;;;;;;;3.70;96.30;;;;;;4331918;33;19978;-23
2021/01/08 03:07:33;;;;;;;;;;;3.70;96.30;;;;;;4332360;33;20381;-23
2021/01/08 03:10:00;;;;;;;;;;;3.60;96.20;;;;;;4332196;33;19962;-23
2021/01/08 03:12:29;;;;;;;;;;;3.60;96.20;;;;;;4332011;33;19967;-23
2021/01/08 03:14:57;;;;;;;;;;;3.60;96.20;;;;;;4332051;33;19951;-24
2021/01/08 03:17:23;;;;;;;;;;;3.60;96.20;;;;;;4318886;33;19967;-23
2021/01/08 03:19:50;;;;;;;;;;;3.60;96.20;;;;;;4332051;33;19972;-23
2021/01/08 03:22:17;;;;;;;;;;;3.60;96.20;;;;;;4331782;33;19960;-23
2021/01/08 03:24:43;;;;;;;;;;;3.60;96.20;;;;;;4332014;33;20009;-23
2021/01/08 03:27:10;;;;;;;;;;;3.60;96.20;;;;;;4318421;33;19986;-23
2021/01/08 03:29:37;;;;;;;;;;;3.60;96.20;;;;;;4331779;33;20285;-23
2021/01/08 03:32:04;;;;;;;;;;;3.60;96.20;;;;;;4331247;33;19940;-23
2021/01/08 03:34:31;;;;;;;;;;;3.60;96.20;;;;;;4331867;33;19948;-23
2021/01/08 03:36:57;;;;;;;;;;;3.60;96.20;;;;;;4331565;33;19979;-23
2021/01/08 03:39:23;;;;;;;;;;;3.60;96.20;;;;;;4331627;33;19948;-23
2021/01/08 03:41:50;;;;;;;;;;;3.60;96.20;;;;;;4331645;33;19940;-23
2021/01/08 03:44:16;;;;;;;;;;;3.60;96.20;;;;;;4331607;33;19995;-23
2021/01/08 03:46:42;;;;;;;;;;;3.60;96.20;;;;;;4331862;33;19948;-23
2021/01/08 03:49:09;;;;;;;;;;;3.60;96.10;;;;;;4331152;33;19964;-23
2021/01/08 03:51:35;;;;;;;;;;;3.60;96.10;;;;;;4331340;33;19940;-23
2021/01/08 03:54:02;;;;;;;;;;;3.60;96.10;;;;;;4331392;33;20325;-23
2021/01/08 03:56:28;;;;;;;;;;;3.60;96.10;;;;;;4331400;33;19958;-23
2021/01/08 03:58:54;;;;;;;;;;;3.60;96.10;;;;;;4331343;33;20010;-23
2021/01/08 04:01:21;;;;;;;;;;;3.60;96.10;;;;;;4331483;33;19952;-23
2021/01/08 04:03:48;;;;;;;;;;;3.60;96.10;;;;;;4330063;33;19948;-23
2021/01/08 04:06:14;;;;;;;;;;;3.60;96.10;;;;;;4331487;33;19944;-23
2021/01/08 04:08:41;;;;;;;;;;;3.60;96.20;;;;;;4331413;33;19979;-23
2021/01/08 04:11:07;;;;;;;;;;;3.60;96.10;;;;;;4331233;33;19948;-23
2021/01/08 04:13:34;;;;;;;;;;;3.60;96.10;;;;;;4330152;33;19944;-23
2021/01/08 04:16:01;;;;;;;;;;;3.60;96.10;;;;;;4330742;33;19940;-23
2021/01/08 04:18:27;;;;;;;;;;;3.60;96.10;;;;;;4330814;33;19944;-23
2021/01/08 04:20:54;;;;;;;;;;;3.60;96.10;;;;;;4330877;33;19998;-23
2021/01/08 04:23:20;;;;;;;;;;;3.60;96.10;;;;;;4331291;33;19944;-23
2021/01/08 04:25:46;;;;;;;;;;;3.60;96.00;;;;;;4331223;33;19948;-23
2021/01/08 04:28:13;;;;;;;;;;;3.60;96.00;;;;;;4331016;33;20399;-23
2021/01/08 04:30:39;;;;;;;;;;;3.60;96.10;;;;;;4330724;33;20335;-23
2021/01/08 04:33:06;;;;;;;;;;;3.50;96.10;;;;;;4330683;33;19975;-23
2021/01/08 04:35:33;;;;;;;;;;;3.50;96.00;;;;;;4330778;33;19987;-23
2021/01/08 04:37:59;;;;;;;;;;;3.60;96.10;;;;;;4331003;33;19952;-23
2021/01/08 04:40:26;;;;;;;;;;;3.50;96.10;;;;;;4330847;33;19982;-23
2021/01/08 04:42:52;;;;;;;;;;;3.50;96.10;;;;;;4330823;33;19952;-23
2021/01/08 04:45:19;;;;;;;;;;;3.50;96.10;;;;;;4330602;33;19944;-23
2021/01/08 04:47:46;;;;;;;;;;;3.50;96.00;;;;;;4330732;33;19947;-23
2021/01/08 04:50:13;;;;;;;;;;;3.50;96.10;;;;;;4330649;33;20286;-23
2021/01/08 04:52:40;;;;;;;;;;;3.50;96.10;;;;;;4329804;33;19951;-23
2021/01/08 04:55:08;;;;;;;;;;;3.50;96.10;;;;;;4330669;33;20385;-23
2021/01/08 04:57:35;;;;;;;;;;;3.50;96.10;;;;;;4330717;33;19948;-23
2021/01/08 05:00:03;;;;;;;;;;;3.50;96.10;;;;;;4330379;33;20342;-23
2021/01/08 05:02:30;;;;;;;;;;;3.50;96.10;;;;;;4329233;33;20006;-23
2021/01/08 05:04:57;;;;;;;;;;;3.50;96.10;;;;;;4330657;33;19954;-23
2021/01/08 05:07:25;;;;;;;;;;;3.50;96.00;;;;;;4329392;33;19964;-23
2021/01/08 05:09:52;;;;;;;;;;;3.50;96.00;;;;;;4317508;33;19948;-23
2021/01/08 05:12:19;;;;;;;;;;;3.50;96.00;;;;;;4330890;33;19944;-23
2021/01/08 05:14:46;;;;;;;;;;;3.50;96.00;;;;;;4330351;33;19948;-23
2021/01/08 05:17:12;;;;;;;;;;;3.50;96.10;;;;;;4330395;33;19947;-23
2021/01/08 05:19:46;;;;;;;;;;;3.50;96.00;;;;;;4330660;33;19948;-23
2021/01/08 05:22:14;;;;;;;;;;;3.50;96.00;;;;;;4330805;33;20404;-23
2021/01/08 05:24:41;;;;;;;;;;;3.50;96.00;;;;;;4330490;33;19940;-24
2021/01/08 05:27:11;;;;;;;;;;;3.50;96.00;;;;;;4329381;33;19959;-23
2021/01/08 05:29:37;;;;;;;;;;;3.50;96.00;;;;;;4330715;33;19944;-23
2021/01/08 05:32:04;;;;;;;;;;;3.50;96.00;;;;;;4330335;33;19979;-23
2021/01/08 05:34:32;;;;;;;;;;;3.50;96.00;;;;;;4329480;33;19944;-23
2021/01/08 05:36:58;;;;;;;;;;;3.50;96.00;;;;;;4330415;33;19952;-23
2021/01/08 05:39:25;;;;;;;;;;;3.50;96.00;;;;;;4331484;33;19951;-23
2021/01/08 05:41:52;;;;;;;;;;;3.50;96.00;;;;;;4330098;33;19986;-23
2021/01/08 05:44:19;;;;;;;;;;;3.50;96.00;;;;;;4330318;33;19940;-23
2021/01/08 05:46:47;;;;;;;;;;;3.50;95.90;;;;;;4318833;33;19982;-23
2021/01/08 05:49:15;;;;;;;;;;;3.50;96.00;;;;;;4330322;33;19939;-23
2021/01/08 05:51:44;;;;;;;;;;;3.50;95.90;;;;;;4330329;33;20235;-23
2021/01/08 05:54:11;;;;;;;;;;;3.50;96.00;;;;;;4330585;33;19948;-23
2021/01/08 05:56:37;;;;;;;;;;;3.50;95.90;;;;;;4331565;33;19944;-23
2021/01/08 05:59:05;;;;;;;;;;;3.50;95.90;;;;;;4332838;33;19954;-23
2021/01/08 06:01:32;;;;;;;;;;;3.50;95.90;;;;;;4332693;33;19982;-23
2021/01/08 06:04:01;;;;;;;;;;;3.50;96.00;;;;;;4333147;33;19944;-23
2021/01/08 06:06:38;;;;;;;;;;;3.50;96.00;;;;;;4319406;33;19947;-23
2021/01/08 06:09:05;;;;;;;;;;;3.40;95.90;;;;;;4333245;33;19962;-23
2021/01/08 06:11:35;;;;;;;;;;;3.50;96.00;;;;;;4333017;33;19983;-23
2021/01/08 06:14:01;;;;;;;;;;;3.50;96.00;;;;;;4332827;33;19944;-23
2021/01/08 06:16:35;;;;;;;;;;;3.50;96.00;;;;;;4332873;33;19986;-23
2021/01/08 06:19:03;;;;;;;;;;;3.50;96.00;;;;;;4307590;33;20013;-23
2021/01/08 06:21:34;;;;;;;;;;;3.50;96.00;;;;;;4319346;33;19987;-23
2021/01/08 06:24:01;;;;;;;;;;;3.50;96.00;;;;;;4333050;33;19958;-23
2021/01/08 06:26:29;;;;;;;;;;;3.50;96.00;;;;;;4332887;33;20345;-23
2021/01/08 06:29:00;;;;;;;;;;;3.40;96.00;;;;;;4332704;33;20366;-23
2021/01/08 06:31:59;;;;;;;;;;;3.50;96.00;;;;;;4332634;33;19979;-23
2021/01/08 06:34:25;;;;;;;;;;;3.40;96.00;;;;;;4307720;33;20297;-23
2021/01/08 06:37:06;;;;;;;;;;;3.40;96.00;;;;;;4331233;33;19962;-23
2021/01/08 06:39:37;;;;;;;;;;;3.50;96.00;;;;;;4331381;33;19971;-23
2021/01/08 06:42:04;;;;;;;;;;;3.40;96.00;;;;;;4332484;33;20388;-23
2021/01/08 06:44:31;;;;;;;;;;;3.40;96.00;;;;;;4332772;33;19948;-23
2021/01/08 06:46:58;;;;;;;;;;;3.50;96.00;;;;;;4332225;33;19944;-23
2021/01/08 06:49:25;;;;;;;;;;;3.40;96.00;;;;;;4332246;33;19940;-23
2021/01/08 06:51:52;;;;;;;;;;;3.40;96.00;;;;;;4334107;33;19954;-23
2021/01/08 06:54:19;;;;;;;;;;;3.40;96.00;;;;;;4332109;33;19943;-23
2021/01/08 06:56:46;;;;;;;;;;;3.40;96.00;;;;;;4332354;33;19966;-23
2021/01/08 06:59:13;;;;;;;;;;;3.40;96.00;;;;;;4332100;33;19987;-23
2021/01/08 07:01:58;;;;;;;;;;;3.40;96.00;;;;;;4331651;33;20006;-23
2021/01/08 07:04:31;;;;;;;;;;;3.40;96.00;;;;;;4332123;33;19944;-23
2021/01/08 07:06:59;;;;;;;;;;;3.40;96.00;;;;;;4331941;33;19997;-24
2021/01/08 07:09:34;;;;;;;;;;;3.40;96.00;;;;;;4318485;33;20000;-23
2021/01/08 07:12:06;;;;;;;;;;;3.40;96.00;;;;;;4332323;33;19948;-23
2021/01/08 07:14:37;;;;;;;;;;;3.40;96.00;;;;;;4332094;33;19944;-23
2021/01/08 07:17:05;;;;;;;;;;;3.40;96.00;;;;;;4330375;33;19952;-23
2021/01/08 07:19:32;;;;;;;;;;;3.40;96.00;;;;;;4331775;33;19947;-23
2021/01/08 07:22:00;;;;;;;;;;;3.40;96.00;;;;;;4332085;33;19979;-23
2021/01/08 07:24:29;;;;;;;;;;;3.40;96.00;;;;;;4331805;33;19955;-23
2021/01/08 07:27:16;;;;;;;;;;;3.40;96.00;;;;;;4331734;33;19945;-23
2021/01/08 07:29:52;;;;;;;;;;;3.40;96.00;;;;;;4331929;33;19978;-23
2021/01/08 07:32:34;;;;;;;;;;;3.40;96.10;;;;;;4331826;33;19940;-23
2021/01/08 07:35:21;;;;;;;;;;;3.40;96.00;;;;;;4331729;33;19950;-23
2021/01/08 07:38:07;;;;;;;;;;;3.40;96.00;;;;;;4331982;33;19962;-23
2021/01/08 07:40:33;;;;;;;;;;;3.40;96.00;;;;;;4318348;33;19997;-23
2021/01/08 07:43:10;;;;;;;;;;;3.40;96.00;;;;;;4331408;33;19978;-23
2021/01/08 07:45:57;;;;;;;;;;;3.40;96.10;;;;;;4330338;33;19987;-23
2021/01/08 07:48:27;;;;;;;;;;;3.40;96.10;;;;;;4331156;33;19999;-23
2021/01/08 07:50:54;;;;;;;;;;;3.40;96.10;;;;;;4331513;33;19976;-23
2021/01/08 07:53:39;;;;;;;;;;;3.40;96.10;;;;;;4331365;33;19963;-23
2021/01/08 07:56:06;;;;;;;;;;;3.40;96.10;;;;;;4331232;33;19958;-23
2021/01/08 07:58:32;;;;;;;;;;;3.40;96.10;;;;;;4331292;33;19944;-23
2021/01/08 08:00:59;;;;;;;;;;;3.40;96.10;;;;;;4331440;33;19948;-23
2021/01/08 08:03:26;;;;;;;;;;;3.40;96.10;;;;;;4331248;33;19978;-24
2021/01/08 08:05:52;;;;;;;;;;;3.40;96.10;;;;;;4330951;33;19958;-23
2021/01/08 08:08:18;;;;;;;;;;;3.40;96.10;;;;;;4331009;33;19963;-23
2021/01/08 08:10:45;;;;;;;;;;;3.40;96.10;;;;;;4330871;33;19932;-23
2021/01/08 08:13:13;;;;;;;;;;;3.40;96.10;;;;;;4332733;33;19948;-23
2021/01/08 08:15:46;;;;;;;;;;;3.50;96.10;;;;;;4317987;33;20314;-23
2021/01/08 08:18:14;;;;;;;;;;;3.40;96.10;;;;;;4330041;33;20427;-23
2021/01/08 08:20:40;;;;;;;;;;;3.50;96.10;;;;;;4317500;33;20380;-23
2021/01/08 08:23:16;;;;;;;;;;;3.40;96.10;;;;;;4317656;33;19955;-23
2021/01/08 08:25:44;;;;;;;;;;;3.40;96.10;;;;;;4329856;33;19994;-23
2021/01/08 08:28:11;;;;;;;;;;;3.40;96.10;;;;;;4332501;33;19968;-23
2021/01/08 08:30:37;;;;;;;;;;;3.40;96.10;;;;;;4331005;33;20251;-24
2021/01/08 08:33:04;;;;;;;;;;;3.40;96.10;;;;;;4330620;33;19975;-29
2021/01/08 08:35:35;;;;;;;;;;;3.40;96.10;;;;;;4331254;33;20346;-24
2021/01/08 08:38:02;;;;;;;;;;;3.40;96.10;;;;;;4317697;33;19975;-23
2021/01/08 08:40:29;;;;;;;;;;;3.50;96.10;;;;;;4330895;33;19960;-23
2021/01/08 08:42:57;;;;;;;;;;;3.40;96.10;;;;;;4329694;33;19998;-23
2021/01/08 08:45:25;;;;;;;;;;;3.40;96.10;;;;;;4330755;33;19978;-23
2021/01/08 08:47:52;;;;;;;;;;;3.50;96.10;;;;;;4330605;33;19983;-24
2021/01/08 08:50:20;;;;;;;;;;;3.50;96.10;;;;;;4330502;33;19952;-24
2021/01/08 08:52:51;;;;;;;;;;;3.40;96.10;;;;;;4330656;33;19952;-24
2021/01/08 08:55:25;;;;;;;;;;;3.40;96.10;;;;;;4317450;33;20309;-24
2021/01/08 08:58:14;;;;;;;;;;;3.50;96.20;;;;;;4329648;33;19963;-23
2021/01/08 09:00:41;;;;;;;;;;;3.50;96.20;;;;;;4330923;33;20330;-23
2021/01/08 09:03:15;;;;;;;;;;;3.40;96.20;;;;;;4330571;33;19944;-23
2021/01/08 09:05:42;;;;;;;;;;;3.50;96.20;;;;;;4317680;33;19948;-23
2021/01/08 09:08:12;;;;;;;;;;;3.50;96.20;;;;;;4329428;33;19974;-23
2021/01/08 09:10:41;;;;;;;;;;;3.50;96.20;;;;;;4330761;33;20003;-23
2021/01/08 09:13:15;;;;;;;;;;;3.50;96.20;;;;;;4329266;33;20368;-23
2021/01/08 09:15:44;;;;;;;;;;;3.50;96.20;;;;;;4330777;33;19947;-23
2021/01/08 09:18:19;;;;;;;;;;;3.50;96.20;;;;;;4329455;33;19944;-23
2021/01/08 09:21:04;;;;;;;;;;;3.50;96.20;;;;;;4330520;33;19940;-24
2021/01/08 09:23:32;;;;;;;;;;;3.50;96.20;;;;;;4330458;33;19948;-23
2021/01/08 09:26:03;;;;;;;;;;;3.50;96.20;;;;;;4330513;33;19936;-23
2021/01/08 09:28:38;;;;;;;;;;;3.50;96.20;;;;;;4317353;33;19957;-23
2021/01/08 09:31:05;;;;;;;;;;;3.50;96.20;;;;;;4331593;33;19987;-23
2021/01/08 09:33:32;;;;;;;;;;;3.50;96.20;;;;;;4333397;33;20302;-23
2021/01/08 09:35:58;;;;;;;;;;;3.50;96.20;;;;;;4333152;33;19955;-23
2021/01/08 09:38:27;;;;;;;;;;;3.50;96.20;;;;;;4333152;33;19962;-23
2021/01/08 09:40:54;;;;;;;;;;;3.50;96.20;;;;;;4333335;33;19979;-23
2021/01/08 09:43:20;;;;;;;;;;;3.50;96.20;;;;;;4333279;33;20330;-23
2021/01/08 09:45:59;;;;;;;;;;;3.50;96.20;;;;;;4333257;33;20355;-23
2021/01/08 09:48:26;;;;;;;;;;;3.50;96.20;;;;;;4319899;33;20398;-23
2021/01/08 09:50:59;;;;;;;;;;;3.50;96.20;;;;;;4332962;33;19949;-23
2021/01/08 09:53:26;;;;;;;;;;;3.50;96.30;;;;;;4319824;33;20294;-23
2021/01/08 09:55:52;;;;;;;;;;;3.50;96.30;;;;;;4333018;33;19974;-23
2021/01/08 09:58:21;;;;;;;;;;;3.60;96.60;;;;;;4333146;33;19948;-23
2021/01/08 10:00:52;;;;;;;;;;;3.50;96.30;;;;;;4333507;33;19944;-23
2021/01/08 10:03:23;;;;;;;;;;;3.50;96.30;;;;;;4319235;33;19952;-23
2021/01/08 10:06:00;;;;;;;;;;;3.50;96.30;;;;;;4332189;33;20000;-23
2021/01/08 10:08:30;;;;;;;;;;;3.50;96.30;;;;;;4334802;33;19956;-23
2021/01/08 10:10:58;;;;;;;;;;;3.60;96.30;;;;;;4331985;33;19947;-24
2021/01/08 10:13:25;;;;;;;;;;;3.60;96.40;;;;;;4332942;33;19966;-23
2021/01/08 10:15:52;;;;;;;;;;;3.60;96.40;;;;;;4333117;33;19943;-23
2021/01/08 10:18:24;;;;;;;;;;;3.50;96.30;;;;;;4331537;33;20293;-23
2021/01/08 10:20:51;;;;;;;;;;;3.60;96.40;;;;;;4332982;33;19943;-23
2021/01/08 10:23:25;;;;;;;;;;;3.60;96.40;;;;;;4332633;33;19944;-23
2021/01/08 10:25:52;;;;;;;;;;;3.60;96.40;;;;;;4332556;33;20326;-23
2021/01/08 10:28:23;;;;;;;;;;;3.60;96.40;;;;;;4332795;33;19944;-23
2021/01/08 10:30:51;;;;;;;;;;;3.60;96.40;;;;;;4330416;33;19940;-24
2021/01/08 10:33:22;;;;;;;;;;;3.60;96.40;;;;;;4333984;33;19947;-23
2021/01/08 10:35:50;;;;;;;;;;;3.60;96.40;;;;;;4319326;33;19952;-23
2021/01/08 10:38:20;;;;;;;;;;;3.60;96.40;;;;;;4334279;33;19948;-24
2021/01/08 10:40:47;;;;;;;;;;;3.60;96.40;;;;;;4332653;33;20466;-23
2021/01/08 10:43:14;;;;;;;;;;;3.60;96.40;;;;;;4333527;33;19976;-23
2021/01/08 10:45:46;;;;;;;;;;;3.60;96.30;;;;;;4332268;33;19975;-24
2021/01/08 10:48:14;;;;;;;;;;;3.60;96.30;;;;;;4319471;33;19983;-24
2021/01/08 10:50:41;;;;;;;;;;;3.60;96.30;;;;;;4332426;33;19979;-24
2021/01/08 10:53:07;;;;;;;;;;;3.60;96.40;;;;;;4332476;33;19948;-23
2021/01/08 10:55:35;;;;;;;;;;;3.60;96.30;;;;;;4331997;33;20330;-23
2021/01/08 10:58:05;;;;;;;;;;;3.60;96.40;;;;;;4332543;33;19944;-23
2021/01/08 11:00:31;;;;;;;;;;;3.60;96.40;;;;;;4319071;33;19979;-23
2021/01/08 11:02:58;;;;;;;;;;;3.70;96.40;;;;;;4331892;33;20031;-23
2021/01/08 11:05:24;;;;;;;;;;;3.70;96.40;;;;;;4332178;33;20014;-23
2021/01/08 11:07:51;;;;;;;;;;;3.60;96.70;;;;;;4331786;33;19968;-23
2021/01/08 11:10:17;;;;;;;;;;;3.60;96.30;;;;;;4331938;33;20057;-23
2021/01/08 11:12:44;;;;;;;;;;;3.60;96.30;;;;;;4331897;33;20154;-23
2021/01/08 11:15:10;;;;;;;;;;;3.70;96.40;;;;;;4332240;33;19948;-23
2021/01/08 11:17:37;;;;;;;;;;;3.70;96.40;;;;;;4332005;33;19944;-23
2021/01/08 11:20:05;;;;;;;;;;;3.60;96.40;;;;;;4331927;33;20324;-23
2021/01/08 11:22:32;;;;;;;;;;;3.70;96.40;;;;;;4332137;33;19984;-23
2021/01/08 11:25:02;;;;;;;;;;;3.70;96.40;;;;;;4332095;33;19954;-23
2021/01/08 11:27:29;;;;;;;;;;;3.70;96.40;;;;;;4332087;33;20374;-23
2021/01/08 11:29:56;;;;;;;;;;;3.70;96.40;;;;;;4333268;33;19932;-23
2021/01/08 11:32:22;;;;;;;;;;;3.70;96.40;;;;;;4331835;33;19958;-23
2021/01/08 11:34:49;;;;;;;;;;;3.70;96.40;;;;;;4331808;33;19984;-23
2021/01/08 11:37:15;;;;;;;;;;;3.70;96.40;;;;;;4332010;33;20004;-23
2021/01/08 11:39:47;;;;;;;;;;;3.70;96.40;;;;;;4330384;33;20377;-23
2021/01/08 11:42:15;;;;;;;;;;;3.70;96.40;;;;;;4331871;33;19982;-23
2021/01/08 11:44:42;;;;;;;;;;;3.70;96.40;;;;;;4331600;33;19944;-23
2021/01/08 11:47:11;;;;;;;;;;;3.70;96.40;;;;;;4331603;33;19939;-23
2021/01/08 11:49:38;;;;;;;;;;;3.70;96.40;;;;;;4331239;33;20027;-23
2021/01/08 11:52:05;;;;;;;;;;;3.70;96.40;;;;;;4331222;33;19940;-23
2021/01/08 11:54:33;;;;;;;;;;;3.70;96.40;;;;;;4331371;33;19987;-23
2021/01/08 11:57:04;;;;;;;;;;;3.70;96.40;;;;;;4330320;33;19948;-23
2021/01/08 11:59:33;;;;;;;;;;;3.70;96.40;;;;;;4331420;33;19966;-23
2021/01/08 12:02:02;;;;;;;;;;;3.70;96.40;;;;;;4331200;33;19983;-23
2021/01/08 12:04:30;;;;;;;;;;;3.70;96.40;;;;;;4331557;33;19952;-23
2021/01/08 12:07:00;;;;;;;;;;;3.70;96.40;;;;;;4330535;33;19948;-23
2021/01/08 12:09:29;;;;;;;;;;;3.70;96.40;;;;;;4331188;33;19948;-23
2021/01/08 12:11:57;;;;;;;;;;;3.70;96.40;;;;;;4331250;33;19940;-23
2021/01/08 12:14:23;;;;;;;;;;;3.70;96.40;;;;;;4331325;33;19944;-24
2021/01/08 12:16:50;;;;;;;;;;;3.70;96.40;;;;;;4330937;33;19948;-23
2021/01/08 12:19:17;;;;;;;;;;;3.70;96.40;;;;;;4330931;33;19962;-23
2021/01/08 12:21:45;;;;;;;;;;;3.70;96.40;;;;;;4329850;33;19998;-23
2021/01/08 12:24:13;;;;;;;;;;;3.70;96.40;;;;;;4317637;33;19975;-24
2021/01/08 12:26:40;;;;;;;;;;;3.70;96.40;;;;;;4331212;33;19959;-23
2021/01/08 12:29:08;;;;;;;;;;;3.70;96.40;;;;;;4331045;33;19959;-23
2021/01/08 12:31:35;;;;;;;;;;;3.70;96.40;;;;;;4330650;33;19981;-24
2021/01/08 12:34:03;;;;;;;;;;;3.70;96.40;;;;;;4330693;33;19975;-23
2021/01/08 12:36:30;;;;;;;;;;;3.70;96.40;;;;;;4330793;33;19978;-24
2021/01/08 12:38:56;;;;;;;;;;;3.70;96.40;;;;;;4330865;33;20318;-23
2021/01/08 12:41:23;;;;;;;;;;;3.70;96.40;;;;;;4330858;33;20301;-23
2021/01/08 12:43:49;;;;;;;;;;;3.70;96.40;;;;;;4330909;33;20334;-23
2021/01/08 12:46:18;;;;;;;;;;;3.70;96.40;;;;;;4331092;33;20004;-24
2021/01/08 12:48:45;;;;;;;;;;;3.70;96.40;;;;;;4330609;33;19943;-24
2021/01/08 12:51:14;;;;;;;;;;;3.70;96.40;;;;;;4330659;33;19978;-23
2021/01/08 12:53:41;;;;;;;;;;;3.70;96.40;;;;;;4330729;33;19948;-23
2021/01/08 12:56:08;;;;;;;;;;;3.70;96.40;;;;;;4330822;33;19948;-23
2021/01/08 12:58:35;;;;;;;;;;;3.70;96.40;;;;;;4330626;33;19968;-23
2021/01/08 13:01:03;;;;;;;;;;;3.70;96.40;;;;;;4330386;33;20010;-23
2021/01/08 13:03:30;;;;;;;;;;;3.70;96.40;;;;;;4330447;33;19958;-23
2021/01/08 13:06:02;;;;;;;;;;;3.70;96.40;;;;;;4330581;33;19948;-23
2021/01/08 13:08:29;;;;;;;;;;;3.80;96.40;;;;;;4330774;33;19940;-23
2021/01/08 13:10:55;;;;;;;;;;;3.80;96.40;;;;;;4330632;33;19954;-23
2021/01/08 13:13:21;;;;;;;;;;;3.80;96.40;;;;;;4330870;33;19952;-23
2021/01/08 13:15:48;;;;;;;;;;;3.80;96.50;;;;;;4330376;33;19955;-23
2021/01/08 13:18:15;;;;;;;;;;;3.80;96.40;;;;;;4330316;33;19975;-23
2021/01/08 13:20:42;;;;;;;;;;;3.80;96.50;;;;;;4330634;33;19958;-23
2021/01/08 13:23:08;;;;;;;;;;;3.80;96.50;;;;;;4330518;33;19951;-23
2021/01/08 13:25:40;;;;;;;;;;;3.80;96.50;;;;;;4330597;33;19986;-23
2021/01/08 13:28:07;;;;;;;;;;;3.80;96.50;;;;;;4330428;33;19944;-23
2021/01/08 13:30:35;;;;;;;;;;;3.80;96.50;;;;;;4330695;33;19954;-23
2021/01/08 13:33:02;;;;;;;;;;;3.90;96.50;;;;;;4329310;33;19991;-23
2021/01/08 13:35:29;;;;;;;;;;;3.90;96.50;;;;;;4330538;33;20302;-23
2021/01/08 13:37:56;;;;;;;;;;;3.90;96.50;;;;;;4332039;33;20266;-24
2021/01/08 13:40:22;;;;;;;;;;;3.90;96.50;;;;;;4329967;33;20394;-23
2021/01/08 13:42:49;;;;;;;;;;;3.90;96.50;;;;;;4330047;33;19982;-23
2021/01/08 13:45:15;;;;;;;;;;;3.90;96.50;;;;;;4330449;33;19952;-23
2021/01/08 13:47:42;;;;;;;;;;;3.90;96.50;;;;;;4330259;33;19983;-23
2021/01/08 13:50:08;;;;;;;;;;;3.90;96.50;;;;;;4330339;33;19958;-23
2021/01/08 13:52:37;;;;;;;;;;;3.90;96.50;;;;;;4330349;33;19962;-23
2021/01/08 13:55:05;;;;;;;;;;;3.90;96.50;;;;;;4316934;33;19947;-23
2021/01/08 13:57:31;;;;;;;;;;;3.90;96.50;;;;;;4330432;33;20035;-23
2021/01/08 13:59:58;;;;;;;;;;;3.90;96.50;;;;;;4330102;33;20342;-23
2021/01/08 14:02:24;;;;;;;;;;;3.90;96.50;;;;;;4329843;33;19983;-23
2021/01/08 14:04:52;;;;;;;;;;;3.90;96.50;;;;;;4330075;33;19962;-23
2021/01/08 14:07:19;;;;;;;;;;;3.90;96.50;;;;;;4316845;33;20004;-23
2021/01/08 14:09:48;;;;;;;;;;;3.90;96.50;;;;;;4329985;33;19982;-23
2021/01/08 14:12:15;;;;;;;;;;;3.90;96.80;;;;;;4329974;33;19951;-23
2021/01/08 14:14:41;;;;;;;;;;;3.90;96.50;;;;;;4330083;33;19963;-23
2021/01/08 14:17:10;;;;;;;;;;;3.90;96.50;;;;;;4329979;33;19953;-23
2021/01/08 14:19:38;;;;;;;;;;;4.00;96.60;;;;;;4319826;33;19952;-23
2021/01/08 14:22:05;;;;;;;;;;;3.90;96.50;;;;;;4332865;33;19976;-23
2021/01/08 14:24:32;;;;;;;;;;;3.90;96.50;;;;;;4332524;33;19948;-23
2021/01/08 14:26:58;;;;;;;;;;;3.90;96.50;;;;;;4332992;33;19948;-23
2021/01/08 14:29:24;;;;;;;;;;;3.90;96.50;;;;;;4319666;33;19983;-23
2021/01/08 14:31:51;;;;;;;;;;;4.00;96.60;;;;;;4332863;33;20384;-23
2021/01/08 14:34:19;;;;;;;;;;;3.90;96.50;;;;;;4332630;33;19940;-23
2021/01/08 14:36:46;;;;;;;;;;;3.90;96.50;;;;;;4332641;33;20304;-23